sensor_id;sensor_type;location;lat;lon;timestamp;P1;durP1;ratioP1;P2;durP2;ratioP2
2720;SDS011;1368;49.484;11.112;2023-07-20T00:00:38;16.27;;;10.33;;
2720;SDS011;1368;49.484;11.112;2023-07-20T00:03:11;15.03;;;11.13;;
2720;SDS011;1368;49.484;11.112;2023-07-20T00:05:42;15.10;;;12.10;;
2720;SDS011;1368;49.484;11.112;2023-07-20T00:08:08;17.77;;;11.53;;
2720;SDS011;1368;49.484;11.112;2023-07-20T00:10:34;13.07;;;10.00;;
2720;SDS011;1368;49.484;11.112;2023-07-20T00:12:59;12.40;;;9.90;;
2720;SDS011;1368;49.484;11.112;2023-07-20T00:15:25;16.80;;;12.00;;
2720;SDS011;1368;49.484;11.112;2023-07-20T00:17:50;14.30;;;11.13;;
2720;SDS011;1368;49.484;11.112;2023-07-20T00:20:16;14.03;;;10.00;;
2720;SDS011;1368;49.484;11.112;2023-07-20T00:22:42;15.97;;;11.80;;
2720;SDS011;1368;49.484;11.112;2023-07-20T00:25:08;11.63;;;10.33;;
2720;SDS011;1368;49.484;11.112;2023-07-20T00:27:36;14.27;;;11.60;;
2720;SDS011;1368;49.484;11.112;2023-07-20T00:30:03;16.10;;;12.63;;
2720;SDS011;1368;49.484;11.112;2023-07-20T00:32:29;17.53;;;11.40;;
2720;SDS011;1368;49.484;11.112;2023-07-20T00:34:55;20.63;;;11.83;;
2720;SDS011;1368;49.484;11.112;2023-07-20T00:37:20;12.33;;;11.03;;
2720;SDS011;1368;49.484;11.112;2023-07-20T00:39:46;13.03;;;10.73;;
2720;SDS011;1368;49.484;11.112;2023-07-20T00:42:11;16.20;;;11.80;;
2720;SDS011;1368;49.484;11.112;2023-07-20T00:44:37;12.20;;;10.57;;
2720;SDS011;1368;49.484;11.112;2023-07-20T00:47:02;11.93;;;9.80;;
2720;SDS011;1368;49.484;11.112;2023-07-20T00:49:29;12.27;;;9.60;;
2720;SDS011;1368;49.484;11.112;2023-07-20T00:51:54;11.27;;;10.17;;
2720;SDS011;1368;49.484;11.112;2023-07-20T00:54:20;16.10;;;11.07;;
2720;SDS011;1368;49.484;11.112;2023-07-20T00:56:46;11.53;;;10.20;;
2720;SDS011;1368;49.484;11.112;2023-07-20T00:59:11;23.50;;;11.30;;
2720;SDS011;1368;49.484;11.112;2023-07-20T01:01:38;17.90;;;13.67;;
2720;SDS011;1368;49.484;11.112;2023-07-20T01:04:03;16.53;;;13.03;;
2720;SDS011;1368;49.484;11.112;2023-07-20T01:06:34;14.80;;;12.67;;
2720;SDS011;1368;49.484;11.112;2023-07-20T01:09:22;14.47;;;12.17;;
2720;SDS011;1368;49.484;11.112;2023-07-20T01:12:08;13.50;;;12.03;;
2720;SDS011;1368;49.484;11.112;2023-07-20T01:14:58;14.40;;;11.80;;
2720;SDS011;1368;49.484;11.112;2023-07-20T01:17:24;13.57;;;11.77;;
2720;SDS011;1368;49.484;11.112;2023-07-20T01:19:50;13.57;;;11.63;;
2720;SDS011;1368;49.484;11.112;2023-07-20T01:33:04;14.60;;;13.03;;
2720;SDS011;1368;49.484;11.112;2023-07-20T01:35:32;16.60;;;13.60;;
2720;SDS011;1368;49.484;11.112;2023-07-20T01:37:59;18.23;;;12.90;;
2720;SDS011;1368;49.484;11.112;2023-07-20T01:40:25;12.20;;;10.90;;
2720;SDS011;1368;49.484;11.112;2023-07-20T01:42:52;15.03;;;11.37;;
2720;SDS011;1368;49.484;11.112;2023-07-20T01:45:18;13.00;;;11.43;;
2720;SDS011;1368;49.484;11.112;2023-07-20T01:47:44;14.57;;;12.63;;
2720;SDS011;1368;49.484;11.112;2023-07-20T01:50:10;13.13;;;11.60;;
2720;SDS011;1368;49.484;11.112;2023-07-20T01:52:35;13.60;;;11.90;;
2720;SDS011;1368;49.484;11.112;2023-07-20T01:55:01;14.27;;;12.60;;
2720;SDS011;1368;49.484;11.112;2023-07-20T01:57:27;15.20;;;11.20;;
2720;SDS011;1368;49.484;11.112;2023-07-20T01:59:52;15.50;;;12.77;;
2720;SDS011;1368;49.484;11.112;2023-07-20T02:02:18;16.00;;;14.30;;
2720;SDS011;1368;49.484;11.112;2023-07-20T02:04:45;16.50;;;13.97;;
2720;SDS011;1368;49.484;11.112;2023-07-20T02:07:11;17.53;;;13.20;;
2720;SDS011;1368;49.484;11.112;2023-07-20T02:09:36;15.60;;;13.40;;
2720;SDS011;1368;49.484;11.112;2023-07-20T02:12:02;15.13;;;12.50;;
2720;SDS011;1368;49.484;11.112;2023-07-20T02:14:28;15.07;;;13.57;;
2720;SDS011;1368;49.484;11.112;2023-07-20T02:16:53;12.87;;;11.27;;
2720;SDS011;1368;49.484;11.112;2023-07-20T02:19:24;12.60;;;11.33;;
2720;SDS011;1368;49.484;11.112;2023-07-20T02:21:51;15.00;;;11.93;;
2720;SDS011;1368;49.484;11.112;2023-07-20T02:24:16;17.73;;;13.00;;
2720;SDS011;1368;49.484;11.112;2023-07-20T02:26:42;19.17;;;14.03;;
2720;SDS011;1368;49.484;11.112;2023-07-20T02:29:08;15.50;;;12.63;;
2720;SDS011;1368;49.484;11.112;2023-07-20T02:31:36;17.33;;;13.03;;
2720;SDS011;1368;49.484;11.112;2023-07-20T02:34:04;15.03;;;13.10;;
2720;SDS011;1368;49.484;11.112;2023-07-20T02:36:30;19.63;;;13.30;;
2720;SDS011;1368;49.484;11.112;2023-07-20T02:38:57;14.50;;;12.87;;
2720;SDS011;1368;49.484;11.112;2023-07-20T02:41:23;16.40;;;12.57;;
2720;SDS011;1368;49.484;11.112;2023-07-20T02:43:49;15.87;;;13.20;;
2720;SDS011;1368;49.484;11.112;2023-07-20T02:46:14;17.20;;;13.67;;
2720;SDS011;1368;49.484;11.112;2023-07-20T02:48:40;17.07;;;14.67;;
2720;SDS011;1368;49.484;11.112;2023-07-20T02:51:05;15.47;;;13.30;;
2720;SDS011;1368;49.484;11.112;2023-07-20T02:53:32;17.47;;;14.27;;
2720;SDS011;1368;49.484;11.112;2023-07-20T02:55:58;17.40;;;14.00;;
2720;SDS011;1368;49.484;11.112;2023-07-20T02:58:24;14.07;;;12.67;;
2720;SDS011;1368;49.484;11.112;2023-07-20T03:00:49;21.00;;;13.50;;
2720;SDS011;1368;49.484;11.112;2023-07-20T03:03:15;14.67;;;13.17;;
2720;SDS011;1368;49.484;11.112;2023-07-20T03:05:41;15.30;;;12.20;;
2720;SDS011;1368;49.484;11.112;2023-07-20T03:08:07;17.83;;;13.73;;
2720;SDS011;1368;49.484;11.112;2023-07-20T03:10:33;17.80;;;13.73;;
2720;SDS011;1368;49.484;11.112;2023-07-20T03:13:03;19.90;;;14.17;;
2720;SDS011;1368;49.484;11.112;2023-07-20T03:15:28;17.33;;;13.50;;
2720;SDS011;1368;49.484;11.112;2023-07-20T03:17:54;17.57;;;13.73;;
2720;SDS011;1368;49.484;11.112;2023-07-20T03:20:19;15.77;;;14.07;;
2720;SDS011;1368;49.484;11.112;2023-07-20T03:22:45;16.17;;;14.47;;
2720;SDS011;1368;49.484;11.112;2023-07-20T03:25:11;16.17;;;14.47;;
2720;SDS011;1368;49.484;11.112;2023-07-20T03:27:37;20.83;;;15.67;;
2720;SDS011;1368;49.484;11.112;2023-07-20T03:30:02;19.43;;;15.10;;
2720;SDS011;1368;49.484;11.112;2023-07-20T03:32:28;16.53;;;14.73;;
2720;SDS011;1368;49.484;11.112;2023-07-20T03:34:53;17.10;;;14.77;;
2720;SDS011;1368;49.484;11.112;2023-07-20T03:37:19;23.13;;;14.97;;
2720;SDS011;1368;49.484;11.112;2023-07-20T03:39:45;17.43;;;14.33;;
2720;SDS011;1368;49.484;11.112;2023-07-20T03:42:10;21.20;;;14.90;;
2720;SDS011;1368;49.484;11.112;2023-07-20T03:44:36;20.23;;;14.33;;
2720;SDS011;1368;49.484;11.112;2023-07-20T03:47:02;14.93;;;13.40;;
2720;SDS011;1368;49.484;11.112;2023-07-20T03:49:29;16.03;;;14.37;;
2720;SDS011;1368;49.484;11.112;2023-07-20T03:51:55;18.57;;;13.67;;
2720;SDS011;1368;49.484;11.112;2023-07-20T03:54:20;15.63;;;13.07;;
2720;SDS011;1368;49.484;11.112;2023-07-20T03:56:46;15.27;;;13.13;;
2720;SDS011;1368;49.484;11.112;2023-07-20T03:59:11;14.17;;;12.73;;
2720;SDS011;1368;49.484;11.112;2023-07-20T04:01:37;16.57;;;12.57;;
2720;SDS011;1368;49.484;11.112;2023-07-20T04:04:06;14.13;;;11.57;;
2720;SDS011;1368;49.484;11.112;2023-07-20T04:06:33;15.80;;;12.30;;
2720;SDS011;1368;49.484;11.112;2023-07-20T04:08:59;22.27;;;13.07;;
2720;SDS011;1368;49.484;11.112;2023-07-20T04:11:24;15.13;;;12.73;;
2720;SDS011;1368;49.484;11.112;2023-07-20T04:13:50;14.00;;;11.03;;
2720;SDS011;1368;49.484;11.112;2023-07-20T04:16:16;14.43;;;11.80;;
2720;SDS011;1368;49.484;11.112;2023-07-20T04:18:41;16.70;;;11.73;;
2720;SDS011;1368;49.484;11.112;2023-07-20T04:21:07;16.17;;;11.40;;
2720;SDS011;1368;49.484;11.112;2023-07-20T04:23:34;15.83;;;11.07;;
2720;SDS011;1368;49.484;11.112;2023-07-20T04:26:00;12.87;;;10.83;;
2720;SDS011;1368;49.484;11.112;2023-07-20T04:28:26;16.90;;;10.77;;
2720;SDS011;1368;49.484;11.112;2023-07-20T04:30:52;16.73;;;10.20;;
2720;SDS011;1368;49.484;11.112;2023-07-20T04:33:18;16.70;;;10.20;;
2720;SDS011;1368;49.484;11.112;2023-07-20T04:38:13;12.87;;;10.53;;
2720;SDS011;1368;49.484;11.112;2023-07-20T04:40:46;11.20;;;9.40;;
2720;SDS011;1368;49.484;11.112;2023-07-20T04:43:13;9.20;;;8.20;;
2720;SDS011;1368;49.484;11.112;2023-07-20T04:45:40;13.50;;;10.53;;
2720;SDS011;1368;49.484;11.112;2023-07-20T04:48:07;13.53;;;9.60;;
2720;SDS011;1368;49.484;11.112;2023-07-20T04:50:36;15.43;;;9.77;;
2720;SDS011;1368;49.484;11.112;2023-07-20T04:53:03;11.67;;;7.80;;
2720;SDS011;1368;49.484;11.112;2023-07-20T04:55:29;12.30;;;8.03;;
2720;SDS011;1368;49.484;11.112;2023-07-20T04:57:55;12.73;;;7.53;;
2720;SDS011;1368;49.484;11.112;2023-07-20T05:00:20;10.70;;;7.60;;
2720;SDS011;1368;49.484;11.112;2023-07-20T05:02:46;14.73;;;8.17;;
2720;SDS011;1368;49.484;11.112;2023-07-20T05:05:15;11.10;;;7.70;;
2720;SDS011;1368;49.484;11.112;2023-07-20T05:07:40;10.07;;;8.33;;
2720;SDS011;1368;49.484;11.112;2023-07-20T05:10:06;14.43;;;7.90;;
2720;SDS011;1368;49.484;11.112;2023-07-20T05:12:32;9.83;;;6.40;;
2720;SDS011;1368;49.484;11.112;2023-07-20T05:14:58;12.30;;;7.30;;
2720;SDS011;1368;49.484;11.112;2023-07-20T05:17:25;11.93;;;6.77;;
2720;SDS011;1368;49.484;11.112;2023-07-20T05:19:50;12.83;;;6.80;;
2720;SDS011;1368;49.484;11.112;2023-07-20T05:22:16;11.87;;;7.67;;
2720;SDS011;1368;49.484;11.112;2023-07-20T05:24:42;10.30;;;6.50;;
2720;SDS011;1368;49.484;11.112;2023-07-20T05:27:08;9.50;;;6.87;;
2720;SDS011;1368;49.484;11.112;2023-07-20T05:29:33;15.00;;;7.40;;
2720;SDS011;1368;49.484;11.112;2023-07-20T05:31:59;12.37;;;7.30;;
2720;SDS011;1368;49.484;11.112;2023-07-20T05:34:24;11.20;;;7.43;;
2720;SDS011;1368;49.484;11.112;2023-07-20T05:36:50;11.90;;;7.37;;
2720;SDS011;1368;49.484;11.112;2023-07-20T05:39:16;11.07;;;7.60;;
2720;SDS011;1368;49.484;11.112;2023-07-20T05:41:42;16.20;;;7.90;;
2720;SDS011;1368;49.484;11.112;2023-07-20T05:44:08;11.63;;;6.70;;
2720;SDS011;1368;49.484;11.112;2023-07-20T05:46:33;9.60;;;6.53;;
2720;SDS011;1368;49.484;11.112;2023-07-20T05:48:59;18.13;;;6.90;;
2720;SDS011;1368;49.484;11.112;2023-07-20T05:51:25;10.53;;;5.50;;
2720;SDS011;1368;49.484;11.112;2023-07-20T05:53:50;12.03;;;6.50;;
2720;SDS011;1368;49.484;11.112;2023-07-20T05:56:16;13.60;;;6.70;;
2720;SDS011;1368;49.484;11.112;2023-07-20T05:58:42;11.07;;;6.50;;
2720;SDS011;1368;49.484;11.112;2023-07-20T06:01:07;11.40;;;6.77;;
2720;SDS011;1368;49.484;11.112;2023-07-20T06:03:33;9.50;;;5.97;;
2720;SDS011;1368;49.484;11.112;2023-07-20T06:06:02;11.40;;;5.93;;
2720;SDS011;1368;49.484;11.112;2023-07-20T06:08:29;15.90;;;5.53;;
2720;SDS011;1368;49.484;11.112;2023-07-20T06:10:55;7.37;;;5.50;;
2720;SDS011;1368;49.484;11.112;2023-07-20T06:13:21;16.93;;;6.50;;
2720;SDS011;1368;49.484;11.112;2023-07-20T06:15:47;10.17;;;6.00;;
2720;SDS011;1368;49.484;11.112;2023-07-20T06:18:13;10.27;;;5.60;;
2720;SDS011;1368;49.484;11.112;2023-07-20T06:20:38;8.50;;;5.00;;
2720;SDS011;1368;49.484;11.112;2023-07-20T06:23:04;8.63;;;5.17;;
2720;SDS011;1368;49.484;11.112;2023-07-20T06:25:30;9.27;;;5.23;;
2720;SDS011;1368;49.484;11.112;2023-07-20T06:27:55;8.80;;;5.10;;
2720;SDS011;1368;49.484;11.112;2023-07-20T06:30:21;9.13;;;4.73;;
2720;SDS011;1368;49.484;11.112;2023-07-20T06:32:47;8.10;;;4.50;;
2720;SDS011;1368;49.484;11.112;2023-07-20T06:35:12;9.07;;;4.57;;
2720;SDS011;1368;49.484;11.112;2023-07-20T06:37:38;7.73;;;5.30;;
2720;SDS011;1368;49.484;11.112;2023-07-20T06:40:04;12.50;;;4.87;;
2720;SDS011;1368;49.484;11.112;2023-07-20T06:42:31;6.53;;;4.70;;
2720;SDS011;1368;49.484;11.112;2023-07-20T06:45:00;12.87;;;5.33;;
2720;SDS011;1368;49.484;11.112;2023-07-20T06:47:26;9.67;;;4.60;;
2720;SDS011;1368;49.484;11.112;2023-07-20T06:49:52;10.00;;;4.90;;
2720;SDS011;1368;49.484;11.112;2023-07-20T06:52:17;7.50;;;4.53;;
2720;SDS011;1368;49.484;11.112;2023-07-20T06:54:43;6.90;;;4.33;;
2720;SDS011;1368;49.484;11.112;2023-07-20T06:57:08;10.67;;;4.80;;
2720;SDS011;1368;49.484;11.112;2023-07-20T06:59:34;6.07;;;4.97;;
2720;SDS011;1368;49.484;11.112;2023-07-20T07:01:59;7.70;;;4.73;;
2720;SDS011;1368;49.484;11.112;2023-07-20T07:04:25;9.90;;;5.23;;
2720;SDS011;1368;49.484;11.112;2023-07-20T07:06:51;11.30;;;5.20;;
2720;SDS011;1368;49.484;11.112;2023-07-20T07:09:16;8.67;;;4.77;;
2720;SDS011;1368;49.484;11.112;2023-07-20T07:11:42;10.50;;;5.20;;
2720;SDS011;1368;49.484;11.112;2023-07-20T07:14:08;7.60;;;5.00;;
2720;SDS011;1368;49.484;11.112;2023-07-20T07:16:34;8.37;;;4.10;;
2720;SDS011;1368;49.484;11.112;2023-07-20T07:18:59;7.60;;;4.60;;
2720;SDS011;1368;49.484;11.112;2023-07-20T07:21:25;8.27;;;4.70;;
2720;SDS011;1368;49.484;11.112;2023-07-20T07:23:50;7.30;;;4.30;;
2720;SDS011;1368;49.484;11.112;2023-07-20T07:26:18;5.50;;;3.90;;
2720;SDS011;1368;49.484;11.112;2023-07-20T07:28:44;9.60;;;3.80;;
2720;SDS011;1368;49.484;11.112;2023-07-20T07:31:09;7.20;;;3.50;;
2720;SDS011;1368;49.484;11.112;2023-07-20T07:33:35;8.10;;;3.73;;
2720;SDS011;1368;49.484;11.112;2023-07-20T07:36:01;5.33;;;3.90;;
2720;SDS011;1368;49.484;11.112;2023-07-20T07:38:26;7.03;;;3.57;;
2720;SDS011;1368;49.484;11.112;2023-07-20T07:40:52;7.60;;;3.03;;
2720;SDS011;1368;49.484;11.112;2023-07-20T07:43:18;8.13;;;3.50;;
2720;SDS011;1368;49.484;11.112;2023-07-20T07:45:43;6.77;;;3.10;;
2720;SDS011;1368;49.484;11.112;2023-07-20T07:48:09;4.50;;;3.27;;
2720;SDS011;1368;49.484;11.112;2023-07-20T07:50:37;6.03;;;3.30;;
2720;SDS011;1368;49.484;11.112;2023-07-20T07:53:05;9.00;;;3.30;;
2720;SDS011;1368;49.484;11.112;2023-07-20T07:55:30;5.33;;;3.13;;
2720;SDS011;1368;49.484;11.112;2023-07-20T07:57:56;6.73;;;3.37;;
2720;SDS011;1368;49.484;11.112;2023-07-20T08:00:22;5.67;;;2.77;;
2720;SDS011;1368;49.484;11.112;2023-07-20T08:02:47;4.50;;;2.27;;
2720;SDS011;1368;49.484;11.112;2023-07-20T08:05:15;4.77;;;2.90;;
2720;SDS011;1368;49.484;11.112;2023-07-20T08:07:40;5.70;;;2.40;;
2720;SDS011;1368;49.484;11.112;2023-07-20T08:10:06;5.73;;;2.83;;
2720;SDS011;1368;49.484;11.112;2023-07-20T08:12:32;6.70;;;3.40;;
2720;SDS011;1368;49.484;11.112;2023-07-20T08:14:58;6.40;;;3.13;;
2720;SDS011;1368;49.484;11.112;2023-07-20T08:17:24;4.40;;;2.87;;
2720;SDS011;1368;49.484;11.112;2023-07-20T08:19:49;5.07;;;3.20;;
2720;SDS011;1368;49.484;11.112;2023-07-20T08:22:15;9.90;;;3.10;;
2720;SDS011;1368;49.484;11.112;2023-07-20T08:24:41;6.67;;;2.83;;
2720;SDS011;1368;49.484;11.112;2023-07-20T08:27:07;6.53;;;2.77;;
2720;SDS011;1368;49.484;11.112;2023-07-20T08:29:33;7.63;;;3.37;;
2720;SDS011;1368;49.484;11.112;2023-07-20T08:31:59;5.50;;;3.23;;
2720;SDS011;1368;49.484;11.112;2023-07-20T08:34:25;4.50;;;2.70;;
2720;SDS011;1368;49.484;11.112;2023-07-20T08:36:50;5.43;;;2.63;;
2720;SDS011;1368;49.484;11.112;2023-07-20T08:39:16;7.10;;;2.77;;
2720;SDS011;1368;49.484;11.112;2023-07-20T08:41:44;8.73;;;2.77;;
2720;SDS011;1368;49.484;11.112;2023-07-20T08:44:11;7.57;;;3.07;;
2720;SDS011;1368;49.484;11.112;2023-07-20T08:46:37;5.57;;;3.13;;
2720;SDS011;1368;49.484;11.112;2023-07-20T08:49:03;4.63;;;2.60;;
2720;SDS011;1368;49.484;11.112;2023-07-20T08:51:30;6.70;;;2.93;;
2720;SDS011;1368;49.484;11.112;2023-07-20T08:53:56;5.00;;;2.80;;
2720;SDS011;1368;49.484;11.112;2023-07-20T08:56:23;4.17;;;2.77;;
2720;SDS011;1368;49.484;11.112;2023-07-20T08:58:50;6.83;;;2.80;;
2720;SDS011;1368;49.484;11.112;2023-07-20T09:01:18;5.50;;;3.27;;
2720;SDS011;1368;49.484;11.112;2023-07-20T09:03:45;6.13;;;3.00;;
2720;SDS011;1368;49.484;11.112;2023-07-20T09:06:11;4.67;;;2.40;;
2720;SDS011;1368;49.484;11.112;2023-07-20T09:08:38;8.67;;;3.13;;
2720;SDS011;1368;49.484;11.112;2023-07-20T09:11:04;5.77;;;2.77;;
2720;SDS011;1368;49.484;11.112;2023-07-20T09:13:31;6.20;;;2.77;;
2720;SDS011;1368;49.484;11.112;2023-07-20T09:15:57;3.80;;;2.27;;
2720;SDS011;1368;49.484;11.112;2023-07-20T09:18:24;5.93;;;2.60;;
2720;SDS011;1368;49.484;11.112;2023-07-20T09:20:50;4.43;;;2.23;;
2720;SDS011;1368;49.484;11.112;2023-07-20T09:23:16;7.10;;;2.10;;
2720;SDS011;1368;49.484;11.112;2023-07-20T09:25:42;5.30;;;2.47;;
2720;SDS011;1368;49.484;11.112;2023-07-20T09:28:07;6.40;;;2.93;;
2720;SDS011;1368;49.484;11.112;2023-07-20T09:30:33;7.23;;;2.40;;
2720;SDS011;1368;49.484;11.112;2023-07-20T09:32:59;6.00;;;2.30;;
2720;SDS011;1368;49.484;11.112;2023-07-20T09:35:24;4.47;;;2.10;;
2720;SDS011;1368;49.484;11.112;2023-07-20T09:37:51;3.90;;;2.30;;
2720;SDS011;1368;49.484;11.112;2023-07-20T09:40:23;6.13;;;2.40;;
2720;SDS011;1368;49.484;11.112;2023-07-20T09:42:50;4.13;;;2.00;;
2720;SDS011;1368;49.484;11.112;2023-07-20T09:45:17;3.50;;;2.10;;
2720;SDS011;1368;49.484;11.112;2023-07-20T09:47:43;3.90;;;2.20;;
2720;SDS011;1368;49.484;11.112;2023-07-20T09:50:08;4.50;;;2.53;;
2720;SDS011;1368;49.484;11.112;2023-07-20T09:52:37;5.90;;;2.60;;
2720;SDS011;1368;49.484;11.112;2023-07-20T09:55:05;5.30;;;2.17;;
2720;SDS011;1368;49.484;11.112;2023-07-20T09:57:32;5.10;;;2.57;;
2720;SDS011;1368;49.484;11.112;2023-07-20T09:59:59;4.20;;;2.17;;
2720;SDS011;1368;49.484;11.112;2023-07-20T10:02:25;7.20;;;2.30;;
2720;SDS011;1368;49.484;11.112;2023-07-20T10:04:59;5.03;;;2.30;;
2720;SDS011;1368;49.484;11.112;2023-07-20T10:07:28;2.80;;;1.93;;
2720;SDS011;1368;49.484;11.112;2023-07-20T10:09:55;4.20;;;2.30;;
2720;SDS011;1368;49.484;11.112;2023-07-20T10:12:24;3.90;;;2.10;;
2720;SDS011;1368;49.484;11.112;2023-07-20T10:15:01;4.20;;;1.97;;
2720;SDS011;1368;49.484;11.112;2023-07-20T10:17:47;7.17;;;1.77;;
2720;SDS011;1368;49.484;11.112;2023-07-20T10:20:22;3.07;;;1.73;;
2720;SDS011;1368;49.484;11.112;2023-07-20T10:22:49;4.33;;;1.47;;
2720;SDS011;1368;49.484;11.112;2023-07-20T10:25:19;4.00;;;2.07;;
2720;SDS011;1368;49.484;11.112;2023-07-20T10:27:47;3.13;;;1.80;;
2720;SDS011;1368;49.484;11.112;2023-07-20T10:30:13;6.90;;;2.20;;
2720;SDS011;1368;49.484;11.112;2023-07-20T10:32:39;3.10;;;2.13;;
2720;SDS011;1368;49.484;11.112;2023-07-20T10:35:15;3.63;;;1.63;;
2720;SDS011;1368;49.484;11.112;2023-07-20T10:37:45;4.07;;;1.50;;
2720;SDS011;1368;49.484;11.112;2023-07-20T10:42:56;3.50;;;1.50;;
2720;SDS011;1368;49.484;11.112;2023-07-20T10:48:24;4.63;;;1.70;;
2720;SDS011;1368;49.484;11.112;2023-07-20T10:53:35;3.37;;;1.60;;
2720;SDS011;1368;49.484;11.112;2023-07-20T10:56:14;4.23;;;1.60;;
2720;SDS011;1368;49.484;11.112;2023-07-20T10:58:43;3.43;;;1.97;;
2720;SDS011;1368;49.484;11.112;2023-07-20T11:01:11;4.47;;;2.00;;
2720;SDS011;1368;49.484;11.112;2023-07-20T11:03:39;3.30;;;1.83;;
2720;SDS011;1368;49.484;11.112;2023-07-20T11:08:50;2.93;;;1.60;;
2720;SDS011;1368;49.484;11.112;2023-07-20T11:11:33;4.80;;;1.83;;
2720;SDS011;1368;49.484;11.112;2023-07-20T11:14:00;2.73;;;1.43;;
2720;SDS011;1368;49.484;11.112;2023-07-20T11:16:45;2.80;;;1.70;;
2720;SDS011;1368;49.484;11.112;2023-07-20T11:19:18;3.73;;;1.40;;
2720;SDS011;1368;49.484;11.112;2023-07-20T11:21:55;4.80;;;1.50;;
2720;SDS011;1368;49.484;11.112;2023-07-20T11:24:22;3.10;;;1.80;;
2720;SDS011;1368;49.484;11.112;2023-07-20T11:26:52;2.53;;;1.50;;
2720;SDS011;1368;49.484;11.112;2023-07-20T11:29:19;2.80;;;1.57;;
2720;SDS011;1368;49.484;11.112;2023-07-20T11:31:46;4.60;;;2.40;;
2720;SDS011;1368;49.484;11.112;2023-07-20T11:34:16;3.17;;;1.70;;
2720;SDS011;1368;49.484;11.112;2023-07-20T11:36:46;9.50;;;1.70;;
2720;SDS011;1368;49.484;11.112;2023-07-20T11:39:15;3.83;;;2.20;;
2720;SDS011;1368;49.484;11.112;2023-07-20T11:41:48;2.93;;;1.70;;
2720;SDS011;1368;49.484;11.112;2023-07-20T11:44:16;2.97;;;1.60;;
2720;SDS011;1368;49.484;11.112;2023-07-20T11:46:42;4.20;;;2.00;;
2720;SDS011;1368;49.484;11.112;2023-07-20T11:49:09;3.43;;;1.87;;
2720;SDS011;1368;49.484;11.112;2023-07-20T11:51:35;4.40;;;2.93;;
2720;SDS011;1368;49.484;11.112;2023-07-20T11:54:02;3.93;;;1.87;;
2720;SDS011;1368;49.484;11.112;2023-07-20T11:56:29;4.03;;;2.03;;
2720;SDS011;1368;49.484;11.112;2023-07-20T11:58:56;3.90;;;2.00;;
2720;SDS011;1368;49.484;11.112;2023-07-20T12:01:24;3.10;;;1.77;;
2720;SDS011;1368;49.484;11.112;2023-07-20T12:03:54;2.83;;;1.70;;
2720;SDS011;1368;49.484;11.112;2023-07-20T12:06:25;3.23;;;1.77;;
2720;SDS011;1368;49.484;11.112;2023-07-20T12:08:54;5.13;;;1.67;;
2720;SDS011;1368;49.484;11.112;2023-07-20T12:11:36;2.60;;;1.43;;
2720;SDS011;1368;49.484;11.112;2023-07-20T12:14:03;3.83;;;1.83;;
2720;SDS011;1368;49.484;11.112;2023-07-20T12:16:31;3.10;;;1.50;;
2720;SDS011;1368;49.484;11.112;2023-07-20T12:19:00;2.87;;;1.37;;
2720;SDS011;1368;49.484;11.112;2023-07-20T12:21:30;4.20;;;1.70;;
2720;SDS011;1368;49.484;11.112;2023-07-20T12:23:57;2.63;;;1.13;;
2720;SDS011;1368;49.484;11.112;2023-07-20T12:26:24;3.87;;;1.70;;
2720;SDS011;1368;49.484;11.112;2023-07-20T12:28:50;2.87;;;1.40;;
2720;SDS011;1368;49.484;11.112;2023-07-20T12:31:16;3.40;;;1.60;;
2720;SDS011;1368;49.484;11.112;2023-07-20T12:33:42;3.10;;;1.50;;
2720;SDS011;1368;49.484;11.112;2023-07-20T12:36:08;8.30;;;1.80;;
2720;SDS011;1368;49.484;11.112;2023-07-20T12:38:34;2.57;;;1.47;;
2720;SDS011;1368;49.484;11.112;2023-07-20T12:41:03;3.00;;;1.40;;
2720;SDS011;1368;49.484;11.112;2023-07-20T12:43:28;4.40;;;2.10;;
2720;SDS011;1368;49.484;11.112;2023-07-20T12:45:55;3.30;;;1.43;;
2720;SDS011;1368;49.484;11.112;2023-07-20T12:48:21;3.17;;;1.53;;
2720;SDS011;1368;49.484;11.112;2023-07-20T12:50:47;7.37;;;1.97;;
2720;SDS011;1368;49.484;11.112;2023-07-20T12:53:13;5.97;;;1.90;;
2720;SDS011;1368;49.484;11.112;2023-07-20T12:55:39;3.50;;;1.83;;
2720;SDS011;1368;49.484;11.112;2023-07-20T12:58:05;4.10;;;1.73;;
2720;SDS011;1368;49.484;11.112;2023-07-20T13:00:31;6.10;;;1.90;;
2720;SDS011;1368;49.484;11.112;2023-07-20T13:02:57;5.73;;;1.87;;
2720;SDS011;1368;49.484;11.112;2023-07-20T13:05:23;5.80;;;1.63;;
2720;SDS011;1368;49.484;11.112;2023-07-20T13:07:48;8.43;;;2.10;;
2720;SDS011;1368;49.484;11.112;2023-07-20T13:10:14;4.77;;;2.23;;
2720;SDS011;1368;49.484;11.112;2023-07-20T13:12:39;3.90;;;1.93;;
2720;SDS011;1368;49.484;11.112;2023-07-20T13:15:06;4.43;;;1.80;;
2720;SDS011;1368;49.484;11.112;2023-07-20T13:17:33;4.03;;;1.83;;
2720;SDS011;1368;49.484;11.112;2023-07-20T13:20:03;4.03;;;1.77;;
2720;SDS011;1368;49.484;11.112;2023-07-20T13:22:31;3.60;;;2.20;;
2720;SDS011;1368;49.484;11.112;2023-07-20T13:24:57;3.77;;;1.60;;
2720;SDS011;1368;49.484;11.112;2023-07-20T13:27:22;4.13;;;1.97;;
2720;SDS011;1368;49.484;11.112;2023-07-20T13:29:48;6.33;;;2.00;;
2720;SDS011;1368;49.484;11.112;2023-07-20T13:32:14;6.13;;;1.63;;
2720;SDS011;1368;49.484;11.112;2023-07-20T13:34:40;3.37;;;1.60;;
2720;SDS011;1368;49.484;11.112;2023-07-20T13:37:06;4.07;;;2.00;;
2720;SDS011;1368;49.484;11.112;2023-07-20T13:39:32;5.10;;;2.30;;
2720;SDS011;1368;49.484;11.112;2023-07-20T13:41:57;4.50;;;2.00;;
2720;SDS011;1368;49.484;11.112;2023-07-20T13:44:23;2.80;;;1.80;;
2720;SDS011;1368;49.484;11.112;2023-07-20T13:46:49;3.10;;;1.80;;
2720;SDS011;1368;49.484;11.112;2023-07-20T13:49:15;3.03;;;1.90;;
2720;SDS011;1368;49.484;11.112;2023-07-20T13:51:43;2.87;;;1.60;;
2720;SDS011;1368;49.484;11.112;2023-07-20T13:54:09;5.37;;;1.93;;
2720;SDS011;1368;49.484;11.112;2023-07-20T13:56:35;2.73;;;1.50;;
2720;SDS011;1368;49.484;11.112;2023-07-20T13:59:01;3.93;;;2.20;;
2720;SDS011;1368;49.484;11.112;2023-07-20T14:01:26;3.67;;;2.00;;
2720;SDS011;1368;49.484;11.112;2023-07-20T14:03:53;5.70;;;2.30;;
2720;SDS011;1368;49.484;11.112;2023-07-20T14:06:19;3.37;;;1.90;;
2720;SDS011;1368;49.484;11.112;2023-07-20T14:08:45;4.20;;;1.70;;
2720;SDS011;1368;49.484;11.112;2023-07-20T14:11:12;3.30;;;1.87;;
2720;SDS011;1368;49.484;11.112;2023-07-20T14:13:38;3.90;;;2.00;;
2720;SDS011;1368;49.484;11.112;2023-07-20T14:16:04;4.20;;;2.17;;
2720;SDS011;1368;49.484;11.112;2023-07-20T14:18:29;5.30;;;2.13;;
2720;SDS011;1368;49.484;11.112;2023-07-20T14:20:55;3.97;;;2.00;;
2720;SDS011;1368;49.484;11.112;2023-07-20T14:23:20;4.30;;;1.90;;
2720;SDS011;1368;49.484;11.112;2023-07-20T14:25:47;3.23;;;2.00;;
2720;SDS011;1368;49.484;11.112;2023-07-20T14:28:13;4.30;;;1.70;;
2720;SDS011;1368;49.484;11.112;2023-07-20T14:30:39;4.37;;;1.90;;
2720;SDS011;1368;49.484;11.112;2023-07-20T14:33:05;2.90;;;1.80;;
2720;SDS011;1368;49.484;11.112;2023-07-20T14:35:30;6.00;;;2.20;;
2720;SDS011;1368;49.484;11.112;2023-07-20T14:37:56;4.10;;;1.90;;
2720;SDS011;1368;49.484;11.112;2023-07-20T14:40:21;3.13;;;1.83;;
2720;SDS011;1368;49.484;11.112;2023-07-20T14:42:47;5.40;;;2.40;;
2720;SDS011;1368;49.484;11.112;2023-07-20T14:45:12;3.83;;;2.10;;
2720;SDS011;1368;49.484;11.112;2023-07-20T14:47:38;3.57;;;2.10;;
2720;SDS011;1368;49.484;11.112;2023-07-20T14:50:05;3.77;;;1.60;;
2720;SDS011;1368;49.484;11.112;2023-07-20T14:52:31;3.07;;;1.80;;
2720;SDS011;1368;49.484;11.112;2023-07-20T14:54:57;4.70;;;2.10;;
2720;SDS011;1368;49.484;11.112;2023-07-20T14:57:22;3.03;;;1.63;;
2720;SDS011;1368;49.484;11.112;2023-07-20T14:59:51;3.07;;;1.60;;
2720;SDS011;1368;49.484;11.112;2023-07-20T15:02:17;3.10;;;1.80;;
2720;SDS011;1368;49.484;11.112;2023-07-20T15:04:50;4.47;;;2.77;;
2720;SDS011;1368;49.484;11.112;2023-07-20T15:07:16;2.67;;;1.50;;
2720;SDS011;1368;49.484;11.112;2023-07-20T15:09:46;6.43;;;1.73;;
2720;SDS011;1368;49.484;11.112;2023-07-20T15:12:12;3.40;;;2.10;;
2720;SDS011;1368;49.484;11.112;2023-07-20T15:14:40;4.63;;;1.83;;